sensor_id;sensor_type;location;lat;lon;timestamp;P1;durP1;ratioP1;P2;durP2;ratioP2
16460;SDS011;8341;42.048;24.650;2024-03-02T00:01:29;252.73;;;53.88;;
16460;SDS011;8341;42.048;24.650;2024-03-02T00:03:56;402.65;;;58.45;;
16460;SDS011;8341;42.048;24.650;2024-03-02T00:06:23;132.55;;;50.88;;
16460;SDS011;8341;42.048;24.650;2024-03-02T00:08:50;165.13;;;46.92;;
16460;SDS011;8341;42.048;24.650;2024-03-02T00:11:17;98.97;;;40.67;;
16460;SDS011;8341;42.048;24.650;2024-03-02T00:13:44;98.43;;;38.60;;
16460;SDS011;8341;42.048;24.650;2024-03-02T00:16:12;92.72;;;41.15;;
16460;SDS011;8341;42.048;24.650;2024-03-02T00:18:41;81.15;;;36.53;;
16460;SDS011;8341;42.048;24.650;2024-03-02T00:21:09;75.22;;;34.97;;
16460;SDS011;8341;42.048;24.650;2024-03-02T00:23:36;391.42;;;44.80;;
16460;SDS011;8341;42.048;24.650;2024-03-02T00:26:03;249.45;;;41.85;;
16460;SDS011;8341;42.048;24.650;2024-03-02T00:28:34;355.30;;;46.35;;
16460;SDS011;8341;42.048;24.650;2024-03-02T00:31:02;324.63;;;40.42;;
16460;SDS011;8341;42.048;24.650;2024-03-02T00:33:31;138.90;;;36.20;;
16460;SDS011;8341;42.048;24.650;2024-03-02T00:36:00;80.05;;;37.85;;
16460;SDS011;8341;42.048;24.650;2024-03-02T00:38:29;124.43;;;38.63;;
16460;SDS011;8341;42.048;24.650;2024-03-02T00:40:57;90.35;;;40.15;;
16460;SDS011;8341;42.048;24.650;2024-03-02T00:43:39;122.70;;;43.70;;
16460;SDS011;8341;42.048;24.650;2024-03-02T00:46:09;205.82;;;49.75;;
16460;SDS011;8341;42.048;24.650;2024-03-02T00:48:38;233.23;;;44.20;;
16460;SDS011;8341;42.048;24.650;2024-03-02T00:51:08;223.73;;;43.10;;
16460;SDS011;8341;42.048;24.650;2024-03-02T00:53:36;283.45;;;50.65;;
16460;SDS011;8341;42.048;24.650;2024-03-02T00:56:03;189.80;;;52.40;;
16460;SDS011;8341;42.048;24.650;2024-03-02T00:58:35;289.77;;;45.22;;
16460;SDS011;8341;42.048;24.650;2024-03-02T01:01:02;90.30;;;39.17;;
16460;SDS011;8341;42.048;24.650;2024-03-02T01:03:31;290.13;;;44.72;;
16460;SDS011;8341;42.048;24.650;2024-03-02T01:05:58;227.48;;;54.20;;
16460;SDS011;8341;42.048;24.650;2024-03-02T01:08:26;229.35;;;43.38;;
16460;SDS011;8341;42.048;24.650;2024-03-02T01:10:53;405.90;;;48.03;;
16460;SDS011;8341;42.048;24.650;2024-03-02T01:13:21;608.75;;;52.75;;
16460;SDS011;8341;42.048;24.650;2024-03-02T01:15:49;309.67;;;43.30;;
16460;SDS011;8341;42.048;24.650;2024-03-02T01:18:16;423.48;;;45.50;;
16460;SDS011;8341;42.048;24.650;2024-03-02T01:20:42;464.45;;;45.00;;
16460;SDS011;8341;42.048;24.650;2024-03-02T01:23:09;484.85;;;48.83;;
16460;SDS011;8341;42.048;24.650;2024-03-02T01:25:37;456.23;;;45.22;;
16460;SDS011;8341;42.048;24.650;2024-03-02T01:28:04;529.53;;;48.78;;
16460;SDS011;8341;42.048;24.650;2024-03-02T01:30:31;733.30;;;60.00;;
16460;SDS011;8341;42.048;24.650;2024-03-02T01:32:58;576.22;;;50.95;;
16460;SDS011;8341;42.048;24.650;2024-03-02T01:35:27;882.45;;;60.17;;
16460;SDS011;8341;42.048;24.650;2024-03-02T01:37:54;380.58;;;42.75;;
16460;SDS011;8341;42.048;24.650;2024-03-02T01:40:21;588.50;;;49.80;;
16460;SDS011;8341;42.048;24.650;2024-03-02T01:42:53;751.45;;;53.38;;
16460;SDS011;8341;42.048;24.650;2024-03-02T01:45:20;845.25;;;65.60;;
16460;SDS011;8341;42.048;24.650;2024-03-02T01:47:48;765.83;;;59.33;;
16460;SDS011;8341;42.048;24.650;2024-03-02T01:50:15;985.95;;;70.68;;
16460;SDS011;8341;42.048;24.650;2024-03-02T01:52:50;749.72;;;56.25;;
16460;SDS011;8341;42.048;24.650;2024-03-02T01:55:18;782.78;;;54.83;;
16460;SDS011;8341;42.048;24.650;2024-03-02T01:57:46;278.40;;;38.85;;
16460;SDS011;8341;42.048;24.650;2024-03-02T02:00:15;139.88;;;36.72;;
16460;SDS011;8341;42.048;24.650;2024-03-02T02:02:42;1093.28;;;81.65;;
16460;SDS011;8341;42.048;24.650;2024-03-02T02:05:09;244.63;;;39.25;;
16460;SDS011;8341;42.048;24.650;2024-03-02T02:07:36;238.50;;;38.20;;
16460;SDS011;8341;42.048;24.650;2024-03-02T02:10:04;123.30;;;34.60;;
16460;SDS011;8341;42.048;24.650;2024-03-02T02:12:31;127.65;;;34.00;;
16460;SDS011;8341;42.048;24.650;2024-03-02T02:14:59;98.82;;;34.13;;
16460;SDS011;8341;42.048;24.650;2024-03-02T02:17:27;100.22;;;35.80;;
16460;SDS011;8341;42.048;24.650;2024-03-02T02:19:54;99.25;;;34.50;;
16460;SDS011;8341;42.048;24.650;2024-03-02T02:22:22;111.20;;;36.13;;
16460;SDS011;8341;42.048;24.650;2024-03-02T02:24:49;91.18;;;34.92;;
16460;SDS011;8341;42.048;24.650;2024-03-02T02:27:16;86.80;;;33.42;;
16460;SDS011;8341;42.048;24.650;2024-03-02T02:29:43;88.60;;;33.78;;
16460;SDS011;8341;42.048;24.650;2024-03-02T02:32:10;100.95;;;34.95;;
16460;SDS011;8341;42.048;24.650;2024-03-02T02:34:37;81.65;;;31.00;;
16460;SDS011;8341;42.048;24.650;2024-03-02T02:37:04;89.22;;;33.80;;
16460;SDS011;8341;42.048;24.650;2024-03-02T02:39:33;95.43;;;33.60;;
16460;SDS011;8341;42.048;24.650;2024-03-02T02:41:59;89.10;;;34.95;;
16460;SDS011;8341;42.048;24.650;2024-03-02T02:44:28;93.05;;;31.60;;
16460;SDS011;8341;42.048;24.650;2024-03-02T02:46:55;99.88;;;31.50;;
16460;SDS011;8341;42.048;24.650;2024-03-02T02:49:22;80.05;;;30.70;;
16460;SDS011;8341;42.048;24.650;2024-03-02T02:51:49;553.88;;;42.10;;
16460;SDS011;8341;42.048;24.650;2024-03-02T02:54:16;285.70;;;34.78;;
16460;SDS011;8341;42.048;24.650;2024-03-02T02:56:45;70.22;;;29.63;;
16460;SDS011;8341;42.048;24.650;2024-03-02T02:59:11;86.57;;;31.33;;
16460;SDS011;8341;42.048;24.650;2024-03-02T03:01:38;175.18;;;32.65;;
16460;SDS011;8341;42.048;24.650;2024-03-02T03:04:05;173.98;;;33.80;;
16460;SDS011;8341;42.048;24.650;2024-03-02T03:06:32;606.20;;;44.80;;
16460;SDS011;8341;42.048;24.650;2024-03-02T03:08:59;85.18;;;31.00;;
16460;SDS011;8341;42.048;24.650;2024-03-02T03:11:26;97.43;;;30.65;;
16460;SDS011;8341;42.048;24.650;2024-03-02T03:13:54;94.30;;;31.77;;
16460;SDS011;8341;42.048;24.650;2024-03-02T03:16:21;82.57;;;31.98;;
16460;SDS011;8341;42.048;24.650;2024-03-02T03:18:48;93.47;;;33.42;;
16460;SDS011;8341;42.048;24.650;2024-03-02T03:21:16;87.65;;;32.40;;
16460;SDS011;8341;42.048;24.650;2024-03-02T03:23:43;88.18;;;30.50;;
16460;SDS011;8341;42.048;24.650;2024-03-02T03:26:10;77.63;;;29.08;;
16460;SDS011;8341;42.048;24.650;2024-03-02T03:28:37;80.50;;;29.92;;
16460;SDS011;8341;42.048;24.650;2024-03-02T03:31:06;85.60;;;30.38;;
16460;SDS011;8341;42.048;24.650;2024-03-02T03:33:33;89.57;;;29.98;;
16460;SDS011;8341;42.048;24.650;2024-03-02T03:36:00;94.95;;;29.75;;
16460;SDS011;8341;42.048;24.650;2024-03-02T03:38:28;77.65;;;28.77;;
16460;SDS011;8341;42.048;24.650;2024-03-02T03:40:55;85.15;;;29.30;;
16460;SDS011;8341;42.048;24.650;2024-03-02T03:43:22;80.65;;;27.85;;
16460;SDS011;8341;42.048;24.650;2024-03-02T03:45:49;79.10;;;26.73;;
16460;SDS011;8341;42.048;24.650;2024-03-02T03:48:18;69.20;;;26.08;;
16460;SDS011;8341;42.048;24.650;2024-03-02T03:50:45;91.70;;;26.63;;
16460;SDS011;8341;42.048;24.650;2024-03-02T03:53:12;78.70;;;26.20;;
16460;SDS011;8341;42.048;24.650;2024-03-02T03:55:40;70.10;;;26.30;;
16460;SDS011;8341;42.048;24.650;2024-03-02T03:58:06;144.95;;;26.35;;
16460;SDS011;8341;42.048;24.650;2024-03-02T04:00:33;214.23;;;28.63;;
16460;SDS011;8341;42.048;24.650;2024-03-02T04:03:00;74.93;;;26.00;;
16460;SDS011;8341;42.048;24.650;2024-03-02T04:05:29;90.38;;;26.55;;
16460;SDS011;8341;42.048;24.650;2024-03-02T04:07:56;339.27;;;31.08;;
16460;SDS011;8341;42.048;24.650;2024-03-02T04:10:23;79.60;;;24.45;;
16460;SDS011;8341;42.048;24.650;2024-03-02T04:12:50;368.00;;;33.00;;
16460;SDS011;8341;42.048;24.650;2024-03-02T04:15:16;710.13;;;39.83;;
16460;SDS011;8341;42.048;24.650;2024-03-02T04:17:45;132.55;;;26.42;;
16460;SDS011;8341;42.048;24.650;2024-03-02T04:20:12;164.05;;;26.20;;
16460;SDS011;8341;42.048;24.650;2024-03-02T04:22:40;283.30;;;28.45;;
16460;SDS011;8341;42.048;24.650;2024-03-02T04:25:07;705.35;;;39.33;;
16460;SDS011;8341;42.048;24.650;2024-03-02T04:27:35;333.30;;;47.97;;
16460;SDS011;8341;42.048;24.650;2024-03-02T04:30:02;693.45;;;45.30;;
16460;SDS011;8341;42.048;24.650;2024-03-02T04:32:30;398.17;;;32.63;;
16460;SDS011;8341;42.048;24.650;2024-03-02T04:34:57;509.63;;;40.80;;
16460;SDS011;8341;42.048;24.650;2024-03-02T04:37:24;489.50;;;36.08;;
16460;SDS011;8341;42.048;24.650;2024-03-02T04:39:53;166.43;;;25.85;;
16460;SDS011;8341;42.048;24.650;2024-03-02T04:42:20;196.13;;;26.88;;
16460;SDS011;8341;42.048;24.650;2024-03-02T04:44:47;82.57;;;23.80;;
16460;SDS011;8341;42.048;24.650;2024-03-02T04:47:14;76.43;;;22.08;;
16460;SDS011;8341;42.048;24.650;2024-03-02T04:49:41;77.78;;;24.23;;
16460;SDS011;8341;42.048;24.650;2024-03-02T04:52:08;77.68;;;25.30;;
16460;SDS011;8341;42.048;24.650;2024-03-02T04:54:35;101.90;;;25.55;;
16460;SDS011;8341;42.048;24.650;2024-03-02T04:57:24;79.63;;;23.55;;
16460;SDS011;8341;42.048;24.650;2024-03-02T04:59:51;74.97;;;23.13;;
16460;SDS011;8341;42.048;24.650;2024-03-02T05:02:18;91.80;;;23.83;;
16460;SDS011;8341;42.048;24.650;2024-03-02T05:04:44;63.72;;;22.63;;
16460;SDS011;8341;42.048;24.650;2024-03-02T05:07:13;72.82;;;22.98;;
16460;SDS011;8341;42.048;24.650;2024-03-02T05:09:41;63.85;;;22.95;;
16460;SDS011;8341;42.048;24.650;2024-03-02T05:12:08;60.85;;;23.10;;
16460;SDS011;8341;42.048;24.650;2024-03-02T05:15:01;60.33;;;21.75;;
16460;SDS011;8341;42.048;24.650;2024-03-02T05:17:29;60.30;;;22.63;;
16460;SDS011;8341;42.048;24.650;2024-03-02T05:19:55;64.35;;;22.85;;
16460;SDS011;8341;42.048;24.650;2024-03-02T05:22:22;62.00;;;20.85;;
16460;SDS011;8341;42.048;24.650;2024-03-02T05:24:49;45.33;;;20.50;;
16460;SDS011;8341;42.048;24.650;2024-03-02T05:27:16;52.13;;;21.42;;
16460;SDS011;8341;42.048;24.650;2024-03-02T05:29:43;52.38;;;21.42;;
16460;SDS011;8341;42.048;24.650;2024-03-02T05:32:11;47.30;;;20.05;;
16460;SDS011;8341;42.048;24.650;2024-03-02T05:34:38;45.78;;;19.23;;
16460;SDS011;8341;42.048;24.650;2024-03-02T05:37:05;46.28;;;19.50;;
16460;SDS011;8341;42.048;24.650;2024-03-02T05:39:32;48.25;;;21.35;;
16460;SDS011;8341;42.048;24.650;2024-03-02T05:41:59;45.67;;;19.77;;
16460;SDS011;8341;42.048;24.650;2024-03-02T05:44:26;44.80;;;20.42;;
16460;SDS011;8341;42.048;24.650;2024-03-02T05:46:53;43.83;;;20.08;;
16460;SDS011;8341;42.048;24.650;2024-03-02T05:49:21;44.65;;;19.75;;
16460;SDS011;8341;42.048;24.650;2024-03-02T05:51:48;46.28;;;20.50;;
16460;SDS011;8341;42.048;24.650;2024-03-02T05:54:15;42.95;;;19.70;;
16460;SDS011;8341;42.048;24.650;2024-03-02T05:56:42;41.55;;;19.30;;
16460;SDS011;8341;42.048;24.650;2024-03-02T05:59:09;42.30;;;19.00;;
16460;SDS011;8341;42.048;24.650;2024-03-02T06:01:38;41.22;;;19.40;;
16460;SDS011;8341;42.048;24.650;2024-03-02T06:04:05;41.60;;;19.70;;
16460;SDS011;8341;42.048;24.650;2024-03-02T06:06:34;44.47;;;20.92;;
16460;SDS011;8341;42.048;24.650;2024-03-02T06:09:01;52.42;;;25.20;;
16460;SDS011;8341;42.048;24.650;2024-03-02T06:11:30;47.80;;;22.17;;
16460;SDS011;8341;42.048;24.650;2024-03-02T06:13:57;48.63;;;21.45;;
16460;SDS011;8341;42.048;24.650;2024-03-02T06:16:24;40.67;;;20.60;;
16460;SDS011;8341;42.048;24.650;2024-03-02T06:18:51;36.63;;;16.45;;
16460;SDS011;8341;42.048;24.650;2024-03-02T06:21:19;31.88;;;16.75;;
16460;SDS011;8341;42.048;24.650;2024-03-02T06:23:47;31.60;;;15.82;;
16460;SDS011;8341;42.048;24.650;2024-03-02T06:26:14;31.83;;;16.02;;
16460;SDS011;8341;42.048;24.650;2024-03-02T06:28:41;27.83;;;14.35;;
16460;SDS011;8341;42.048;24.650;2024-03-02T06:31:09;29.15;;;14.50;;
16460;SDS011;8341;42.048;24.650;2024-03-02T06:33:36;27.45;;;13.73;;
16460;SDS011;8341;42.048;24.650;2024-03-02T06:36:03;28.70;;;13.75;;
16460;SDS011;8341;42.048;24.650;2024-03-02T06:38:33;25.15;;;13.23;;
16460;SDS011;8341;42.048;24.650;2024-03-02T06:41:02;22.60;;;12.68;;
16460;SDS011;8341;42.048;24.650;2024-03-02T06:43:29;27.92;;;15.90;;
16460;SDS011;8341;42.048;24.650;2024-03-02T06:45:55;67.57;;;34.83;;
16460;SDS011;8341;42.048;24.650;2024-03-02T06:48:22;58.95;;;30.15;;
16460;SDS011;8341;42.048;24.650;2024-03-02T06:50:49;22.15;;;12.20;;
16460;SDS011;8341;42.048;24.650;2024-03-02T06:53:17;25.50;;;13.18;;
16460;SDS011;8341;42.048;24.650;2024-03-02T06:55:44;24.15;;;12.65;;
16460;SDS011;8341;42.048;24.650;2024-03-02T06:58:13;23.30;;;12.80;;
16460;SDS011;8341;42.048;24.650;2024-03-02T07:00:41;29.98;;;14.57;;
16460;SDS011;8341;42.048;24.650;2024-03-02T07:03:09;28.48;;;13.32;;
16460;SDS011;8341;42.048;24.650;2024-03-02T07:05:36;30.05;;;14.73;;
16460;SDS011;8341;42.048;24.650;2024-03-02T07:08:03;28.70;;;14.30;;
16460;SDS011;8341;42.048;24.650;2024-03-02T07:10:31;37.50;;;15.98;;
16460;SDS011;8341;42.048;24.650;2024-03-02T07:12:58;33.10;;;15.43;;
16460;SDS011;8341;42.048;24.650;2024-03-02T07:15:26;138.82;;;20.52;;
16460;SDS011;8341;42.048;24.650;2024-03-02T07:18:10;56.13;;;17.83;;
16460;SDS011;8341;42.048;24.650;2024-03-02T07:20:37;31.55;;;16.10;;
16460;SDS011;8341;42.048;24.650;2024-03-02T07:23:04;46.08;;;16.83;;
16460;SDS011;8341;42.048;24.650;2024-03-02T07:25:31;74.78;;;17.73;;
16460;SDS011;8341;42.048;24.650;2024-03-02T07:27:58;53.33;;;21.08;;
16460;SDS011;8341;42.048;24.650;2024-03-02T07:30:27;39.60;;;15.80;;
16460;SDS011;8341;42.048;24.650;2024-03-02T07:32:54;37.63;;;17.48;;
16460;SDS011;8341;42.048;24.650;2024-03-02T07:35:21;51.33;;;16.92;;
16460;SDS011;8341;42.048;24.650;2024-03-02T07:37:51;33.70;;;16.48;;
16460;SDS011;8341;42.048;24.650;2024-03-02T07:40:18;31.58;;;16.17;;
16460;SDS011;8341;42.048;24.650;2024-03-02T07:42:46;28.55;;;12.93;;
16460;SDS011;8341;42.048;24.650;2024-03-02T07:45:13;30.00;;;14.38;;
16460;SDS011;8341;42.048;24.650;2024-03-02T07:47:41;33.17;;;15.68;;
16460;SDS011;8341;42.048;24.650;2024-03-02T07:50:08;26.30;;;12.40;;
16460;SDS011;8341;42.048;24.650;2024-03-02T07:52:35;37.33;;;18.05;;
16460;SDS011;8341;42.048;24.650;2024-03-02T07:55:03;30.33;;;16.33;;
16460;SDS011;8341;42.048;24.650;2024-03-02T07:57:30;34.17;;;16.45;;
16460;SDS011;8341;42.048;24.650;2024-03-02T07:59:58;28.30;;;14.27;;
16460;SDS011;8341;42.048;24.650;2024-03-02T08:02:25;31.13;;;15.63;;
16460;SDS011;8341;42.048;24.650;2024-03-02T08:04:53;29.50;;;14.05;;
16460;SDS011;8341;42.048;24.650;2024-03-02T08:07:20;30.77;;;14.70;;
16460;SDS011;8341;42.048;24.650;2024-03-02T08:09:47;27.50;;;13.55;;
16460;SDS011;8341;42.048;24.650;2024-03-02T08:12:14;25.90;;;13.55;;
16460;SDS011;8341;42.048;24.650;2024-03-02T08:14:41;32.17;;;14.88;;
16460;SDS011;8341;42.048;24.650;2024-03-02T08:17:08;27.95;;;14.30;;
16460;SDS011;8341;42.048;24.650;2024-03-02T08:19:36;29.73;;;14.82;;
16460;SDS011;8341;42.048;24.650;2024-03-02T08:22:05;24.98;;;13.25;;
16460;SDS011;8341;42.048;24.650;2024-03-02T08:24:32;21.58;;;11.90;;
16460;SDS011;8341;42.048;24.650;2024-03-02T08:26:59;25.17;;;12.63;;
16460;SDS011;8341;42.048;24.650;2024-03-02T08:29:26;22.75;;;12.82;;
16460;SDS011;8341;42.048;24.650;2024-03-02T08:31:53;27.35;;;14.32;;
16460;SDS011;8341;42.048;24.650;2024-03-02T08:34:20;30.98;;;16.00;;
16460;SDS011;8341;42.048;24.650;2024-03-02T08:36:47;28.17;;;14.35;;
16460;SDS011;8341;42.048;24.650;2024-03-02T08:39:16;26.67;;;15.23;;
16460;SDS011;8341;42.048;24.650;2024-03-02T08:41:45;31.83;;;16.48;;
16460;SDS011;8341;42.048;24.650;2024-03-02T08:44:12;30.23;;;18.60;;
16460;SDS011;8341;42.048;24.650;2024-03-02T08:46:39;33.83;;;18.63;;
16460;SDS011;8341;42.048;24.650;2024-03-02T08:49:07;24.55;;;14.43;;
16460;SDS011;8341;42.048;24.650;2024-03-02T08:51:34;23.10;;;13.45;;
16460;SDS011;8341;42.048;24.650;2024-03-02T08:54:01;18.10;;;12.07;;
16460;SDS011;8341;42.048;24.650;2024-03-02T08:56:30;21.42;;;13.20;;
16460;SDS011;8341;42.048;24.650;2024-03-02T08:58:57;20.88;;;12.50;;
16460;SDS011;8341;42.048;24.650;2024-03-02T09:01:24;22.80;;;14.27;;
16460;SDS011;8341;42.048;24.650;2024-03-02T09:03:51;22.42;;;12.85;;
16460;SDS011;8341;42.048;24.650;2024-03-02T09:06:19;29.13;;;19.35;;
16460;SDS011;8341;42.048;24.650;2024-03-02T09:08:46;35.42;;;21.80;;
16460;SDS011;8341;42.048;24.650;2024-03-02T09:11:14;43.20;;;21.50;;
16460;SDS011;8341;42.048;24.650;2024-03-02T09:13:43;46.92;;;21.50;;
16460;SDS011;8341;42.048;24.650;2024-03-02T09:16:10;41.50;;;20.15;;
16460;SDS011;8341;42.048;24.650;2024-03-02T09:18:37;31.40;;;17.63;;
16460;SDS011;8341;42.048;24.650;2024-03-02T09:21:04;28.40;;;16.95;;
16460;SDS011;8341;42.048;24.650;2024-03-02T09:23:31;32.72;;;18.70;;
16460;SDS011;8341;42.048;24.650;2024-03-02T09:25:58;32.53;;;17.67;;
16460;SDS011;8341;42.048;24.650;2024-03-02T09:28:25;25.13;;;15.50;;
16460;SDS011;8341;42.048;24.650;2024-03-02T09:30:54;25.67;;;15.75;;
16460;SDS011;8341;42.048;24.650;2024-03-02T09:33:21;27.45;;;15.95;;
16460;SDS011;8341;42.048;24.650;2024-03-02T09:35:47;30.75;;;17.80;;
16460;SDS011;8341;42.048;24.650;2024-03-02T09:38:15;30.30;;;16.85;;
16460;SDS011;8341;42.048;24.650;2024-03-02T09:40:42;29.67;;;17.27;;
16460;SDS011;8341;42.048;24.650;2024-03-02T09:43:09;27.60;;;16.02;;
16460;SDS011;8341;42.048;24.650;2024-03-02T09:45:36;27.13;;;16.95;;
16460;SDS011;8341;42.048;24.650;2024-03-02T09:48:06;28.85;;;16.83;;
16460;SDS011;8341;42.048;24.650;2024-03-02T09:50:33;25.40;;;15.73;;
16460;SDS011;8341;42.048;24.650;2024-03-02T09:53:00;27.92;;;15.68;;
16460;SDS011;8341;42.048;24.650;2024-03-02T09:55:28;27.33;;;15.82;;
16460;SDS011;8341;42.048;24.650;2024-03-02T09:57:55;27.45;;;16.17;;
16460;SDS011;8341;42.048;24.650;2024-03-02T10:00:22;27.45;;;16.23;;
16460;SDS011;8341;42.048;24.650;2024-03-02T10:02:50;28.60;;;17.38;;
16460;SDS011;8341;42.048;24.650;2024-03-02T10:05:27;27.73;;;17.55;;
16460;SDS011;8341;42.048;24.650;2024-03-02T10:08:00;26.02;;;16.75;;
16460;SDS011;8341;42.048;24.650;2024-03-02T10:10:35;26.00;;;16.30;;
16460;SDS011;8341;42.048;24.650;2024-03-02T10:13:05;19.35;;;12.27;;
16460;SDS011;8341;42.048;24.650;2024-03-02T10:15:34;24.02;;;14.70;;
16460;SDS011;8341;42.048;24.650;2024-03-02T10:18:02;24.80;;;15.65;;
16460;SDS011;8341;42.048;24.650;2024-03-02T10:20:30;21.20;;;13.30;;
16460;SDS011;8341;42.048;24.650;2024-03-02T10:23:09;25.75;;;15.82;;
16460;SDS011;8341;42.048;24.650;2024-03-02T10:25:37;28.75;;;19.27;;
16460;SDS011;8341;42.048;24.650;2024-03-02T10:28:05;29.25;;;19.17;;
16460;SDS011;8341;42.048;24.650;2024-03-02T10:30:32;27.75;;;16.83;;
16460;SDS011;8341;42.048;24.650;2024-03-02T10:33:00;22.67;;;15.93;;
16460;SDS011;8341;42.048;24.650;2024-03-02T10:35:28;26.67;;;15.80;;
16460;SDS011;8341;42.048;24.650;2024-03-02T10:37:57;24.95;;;16.95;;
16460;SDS011;8341;42.048;24.650;2024-03-02T10:40:26;29.42;;;19.25;;
16460;SDS011;8341;42.048;24.650;2024-03-02T10:42:53;33.30;;;22.73;;
16460;SDS011;8341;42.048;24.650;2024-03-02T10:45:20;23.70;;;16.73;;
16460;SDS011;8341;42.048;24.650;2024-03-02T10:47:48;29.38;;;19.60;;
16460;SDS011;8341;42.048;24.650;2024-03-02T10:50:16;25.20;;;18.45;;
16460;SDS011;8341;42.048;24.650;2024-03-02T10:52:44;23.50;;;17.77;;
16460;SDS011;8341;42.048;24.650;2024-03-02T10:55:13;33.15;;;22.05;;
16460;SDS011;8341;42.048;24.650;2024-03-02T10:57:45;33.72;;;22.15;;
16460;SDS011;8341;42.048;24.650;2024-03-02T11:00:18;31.63;;;21.02;;
16460;SDS011;8341;42.048;24.650;2024-03-02T11:02:50;34.45;;;21.63;;
16460;SDS011;8341;42.048;24.650;2024-03-02T11:05:26;34.50;;;20.10;;
16460;SDS011;8341;42.048;24.650;2024-03-02T11:07:57;34.15;;;21.38;;
16460;SDS011;8341;42.048;24.650;2024-03-02T11:10:31;38.60;;;23.55;;
16460;SDS011;8341;42.048;24.650;2024-03-02T11:13:02;44.50;;;27.70;;
16460;SDS011;8341;42.048;24.650;2024-03-02T11:15:35;42.10;;;25.80;;
16460;SDS011;8341;42.048;24.650;2024-03-02T11:18:03;41.58;;;26.52;;
16460;SDS011;8341;42.048;24.650;2024-03-02T11:20:34;40.67;;;24.77;;
16460;SDS011;8341;42.048;24.650;2024-03-02T11:23:06;34.63;;;23.13;;
16460;SDS011;8341;42.048;24.650;2024-03-02T11:25:35;33.22;;;21.55;;
16460;SDS011;8341;42.048;24.650;2024-03-02T11:28:03;31.77;;;20.05;;
16460;SDS011;8341;42.048;24.650;2024-03-02T11:30:50;37.10;;;24.50;;
16460;SDS011;8341;42.048;24.650;2024-03-02T11:33:24;32.75;;;21.88;;
16460;SDS011;8341;42.048;24.650;2024-03-02T11:35:56;32.95;;;22.50;;
16460;SDS011;8341;42.048;24.650;2024-03-02T11:38:27;31.15;;;21.90;;
16460;SDS011;8341;42.048;24.650;2024-03-02T11:40:56;37.97;;;24.27;;
16460;SDS011;8341;42.048;24.650;2024-03-02T11:43:24;27.20;;;19.17;;
16460;SDS011;8341;42.048;24.650;2024-03-02T11:45:57;25.58;;;18.85;;
16460;SDS011;8341;42.048;24.650;2024-03-02T11:48:24;26.13;;;18.38;;
16460;SDS011;8341;42.048;24.650;2024-03-02T11:50:52;23.55;;;17.60;;
16460;SDS011;8341;42.048;24.650;2024-03-02T11:53:21;24.35;;;17.27;;
16460;SDS011;8341;42.048;24.650;2024-03-02T11:55:49;27.25;;;19.77;;
16460;SDS011;8341;42.048;24.650;2024-03-02T11:58:20;25.27;;;18.00;;
16460;SDS011;8341;42.048;24.650;2024-03-02T12:00:50;21.17;;;15.43;;
16460;SDS011;8341;42.048;24.650;2024-03-02T12:03:17;20.52;;;14.93;;
16460;SDS011;8341;42.048;24.650;2024-03-02T12:05:44;17.98;;;13.98;;
16460;SDS011;8341;42.048;24.650;2024-03-02T12:08:15;19.63;;;14.68;;
16460;SDS011;8341;42.048;24.650;2024-03-02T12:10:43;16.58;;;12.15;;
16460;SDS011;8341;42.048;24.650;2024-03-02T12:13:23;13.27;;;10.18;;
16460;SDS011;8341;42.048;24.650;2024-03-02T12:15:53;12.38;;;9.70;;
16460;SDS011;8341;42.048;24.650;2024-03-02T12:18:21;13.63;;;10.98;;
16460;SDS011;8341;42.048;24.650;2024-03-02T12:20:48;13.55;;;11.30;;
16460;SDS011;8341;42.048;24.650;2024-03-02T12:23:17;18.60;;;13.45;;
16460;SDS011;8341;42.048;24.650;2024-03-02T12:25:45;12.07;;;9.50;;
16460;SDS011;8341;42.048;24.650;2024-03-02T12:28:12;16.80;;;13.00;;
16460;SDS011;8341;42.048;24.650;2024-03-02T12:30:41;20.25;;;13.65;;
16460;SDS011;8341;42.048;24.650;2024-03-02T12:33:08;15.02;;;11.63;;
16460;SDS011;8341;42.048;24.650;2024-03-02T12:35:38;13.65;;;10.52;;
16460;SDS011;8341;42.048;24.650;2024-03-02T12:38:06;13.02;;;10.20;;
16460;SDS011;8341;42.048;24.650;2024-03-02T12:40:33;13.70;;;10.50;;
16460;SDS011;8341;42.048;24.650;2024-03-02T12:43:02;12.30;;;11.05;;
16460;SDS011;8341;42.048;24.650;2024-03-02T12:45:29;11.63;;;9.95;;
16460;SDS011;8341;42.048;24.650;2024-03-02T12:47:59;9.98;;;8.98;;
16460;SDS011;8341;42.048;24.650;2024-03-02T12:50:27;11.43;;;8.98;;
16460;SDS011;8341;42.048;24.650;2024-03-02T12:52:54;10.38;;;7.95;;
16460;SDS011;8341;42.048;24.650;2024-03-02T12:55:21;8.68;;;7.75;;
16460;SDS011;8341;42.048;24.650;2024-03-02T12:57:49;10.35;;;9.23;;
16460;SDS011;8341;42.048;24.650;2024-03-02T13:00:17;10.88;;;8.60;;
16460;SDS011;8341;42.048;24.650;2024-03-02T13:02:45;10.05;;;8.63;;
16460;SDS011;8341;42.048;24.650;2024-03-02T13:05:14;10.60;;;8.48;;
16460;SDS011;8341;42.048;24.650;2024-03-02T13:07:41;8.15;;;6.75;;
16460;SDS011;8341;42.048;24.650;2024-03-02T13:10:08;9.52;;;8.15;;
16460;SDS011;8341;42.048;24.650;2024-03-02T13:12:35;8.40;;;7.45;;
16460;SDS011;8341;42.048;24.650;2024-03-02T13:15:02;6.20;;;5.55;;
16460;SDS011;8341;42.048;24.650;2024-03-02T13:17:30;6.97;;;6.28;;
16460;SDS011;8341;42.048;24.650;2024-03-02T13:19:59;7.43;;;5.28;;
16460;SDS011;8341;42.048;24.650;2024-03-02T13:22:27;9.05;;;7.28;;
16460;SDS011;8341;42.048;24.650;2024-03-02T13:24:54;8.30;;;5.93;;
16460;SDS011;8341;42.048;24.650;2024-03-02T13:27:22;10.25;;;8.40;;
16460;SDS011;8341;42.048;24.650;2024-03-02T13:29:49;7.63;;;6.53;;
16460;SDS011;8341;42.048;24.650;2024-03-02T13:32:16;20.92;;;15.27;;
16460;SDS011;8341;42.048;24.650;2024-03-02T13:34:45;11.85;;;9.32;;
16460;SDS011;8341;42.048;24.650;2024-03-02T13:37:12;11.05;;;8.48;;
16460;SDS011;8341;42.048;24.650;2024-03-02T13:39:41;11.70;;;9.38;;
16460;SDS011;8341;42.048;24.650;2024-03-02T13:42:08;10.85;;;9.15;;
16460;SDS011;8341;42.048;24.650;2024-03-02T13:44:36;10.18;;;8.60;;
16460;SDS011;8341;42.048;24.650;2024-03-02T13:47:03;11.00;;;9.00;;
16460;SDS011;8341;42.048;24.650;2024-03-02T13:49:31;8.73;;;7.28;;
16460;SDS011;8341;42.048;24.650;2024-03-02T13:52:02;7.20;;;6.50;;
16460;SDS011;8341;42.048;24.650;2024-03-02T13:54:39;15.05;;;10.70;;
16460;SDS011;8341;42.048;24.650;2024-03-02T13:57:08;9.75;;;8.75;;
16460;SDS011;8341;42.048;24.650;2024-03-02T13:59:36;7.88;;;7.00;;
16460;SDS011;8341;42.048;24.650;2024-03-02T14:02:04;7.45;;;6.75;;
16460;SDS011;8341;42.048;24.650;2024-03-02T14:04:32;6.25;;;5.35;;
16460;SDS011;8341;42.048;24.650;2024-03-02T14:07:00;6.55;;;5.95;;
16460;SDS011;8341;42.048;24.650;2024-03-02T14:09:27;8.27;;;7.43;;
16460;SDS011;8341;42.048;24.650;2024-03-02T14:11:56;8.82;;;7.90;;
16460;SDS011;8341;42.048;24.650;2024-03-02T14:14:25;8.02;;;7.25;;
16460;SDS011;8341;42.048;24.650;2024-03-02T14:16:52;6.65;;;5.95;;
16460;SDS011;8341;42.048;24.650;2024-03-02T14:19:21;6.90;;;6.20;;
16460;SDS011;8341;42.048;24.650;2024-03-02T14:21:48;6.20;;;5.60;;
16460;SDS011;8341;42.048;24.650;2024-03-02T14:24:15;6.20;;;5.60;;
16460;SDS011;8341;42.048;24.650;2024-03-02T14:26:42;5.78;;;5.18;;